Time;durP1;ratioP1;P1;durP2;ratioP2;P2;SDS_P1;SDS_P2;PMS_P1;PMS_P2;Temp;Humidity;BMP_temperature;BMP_pressure;BME280_temperature;BME280_humidity;BME280_pressure;Samples;Min_cycle;Max_cycle;Signal;HPM_P1;HPM_P2
2023/05/09 00:01:11;;;;;;;53.33;19.35;;;16.00;99.90;;;;;;5112525;28;20035;-38
2023/05/09 00:03:37;;;;;;;46.00;17.27;;;16.00;99.90;;;;;;5113083;28;20482;-32
2023/05/09 00:06:04;;;;;;;43.45;18.60;;;16.00;99.90;;;;;;5110534;27;20041;-36
2023/05/09 00:08:30;;;;;;;49.63;18.58;;;16.00;99.90;;;;;;5112814;28;20027;-37
2023/05/09 00:10:55;;;;;;;44.53;19.70;;;16.00;99.90;;;;;;5112762;28;20399;-32
2023/05/09 00:13:22;;;;;;;47.42;18.77;;;16.00;99.90;;;;;;5112143;28;20491;-37
2023/05/09 00:15:48;;;;;;;45.22;18.83;;;16.00;99.90;;;;;;5102533;28;20047;-36
2023/05/09 00:18:13;;;;;;;50.13;21.17;;;16.00;99.90;;;;;;5104944;28;20039;-38
2023/05/09 00:20:39;;;;;;;43.75;18.73;;;16.00;99.90;;;;;;5111345;28;20353;-35
2023/05/09 00:23:06;;;;;;;47.13;18.75;;;16.00;99.90;;;;;;5109554;28;20449;-34
2023/05/09 00:25:32;;;;;;;48.20;20.67;;;16.00;99.90;;;;;;5105849;27;20019;-31
2023/05/09 00:27:58;;;;;;;47.58;19.75;;;16.00;99.90;;;;;;5111967;28;20028;-31
2023/05/09 00:30:23;;;;;;;50.13;19.23;;;16.00;99.90;;;;;;5111782;28;20392;-31
2023/05/09 00:32:49;;;;;;;48.88;19.63;;;15.90;99.90;;;;;;5111783;28;20032;-32
2023/05/09 00:35:14;;;;;;;48.88;19.30;;;16.00;99.90;;;;;;5090813;28;20019;-34
2023/05/09 00:37:40;;;;;;;49.85;21.20;;;15.90;99.90;;;;;;5097941;28;20030;-32
2023/05/09 00:40:08;;;;;;;52.35;19.05;;;16.00;99.90;;;;;;5100589;28;20024;-36
2023/05/09 00:42:34;;;;;;;46.05;18.60;;;16.00;99.90;;;;;;5103006;27;20023;-34
2023/05/09 00:45:00;;;;;;;50.05;18.95;;;16.00;99.90;;;;;;5107631;28;20379;-37
2023/05/09 00:47:27;;;;;;;45.13;18.55;;;16.00;99.90;;;;;;5106376;28;20024;-34
2023/05/09 00:49:53;;;;;;;48.28;19.25;;;16.00;99.90;;;;;;5120539;27;20084;-33
2023/05/09 00:52:22;;;;;;;45.22;18.38;;;15.90;99.90;;;;;;5111474;28;20084;-34
2023/05/09 00:54:49;;;;;;;42.20;16.80;;;15.90;99.90;;;;;;5114201;28;20093;-40
2023/05/09 00:57:16;;;;;;;45.03;16.92;;;15.90;99.90;;;;;;5113511;28;20027;-36
2023/05/09 00:59:42;;;;;;;46.60;17.50;;;15.80;99.90;;;;;;5104203;27;20024;-35
2023/05/09 01:02:07;;;;;;;42.78;18.73;;;15.90;99.90;;;;;;5110064;28;20319;-36
2023/05/09 01:04:33;;;;;;;44.30;17.55;;;15.90;99.90;;;;;;5111308;28;20024;-36
2023/05/09 01:07:09;;;;;;;38.63;16.08;;;15.90;99.90;;;;;;5098584;28;20024;-34
2023/05/09 01:09:42;;;;;;;43.20;17.02;;;15.80;99.90;;;;;;5098140;28;20468;-36
2023/05/09 01:12:17;;;;;;;42.53;18.13;;;15.80;99.90;;;;;;5099390;28;20039;-35
2023/05/09 01:14:57;;;;;;;47.60;17.45;;;15.80;99.90;;;;;;5096694;28;20041;-30
2023/05/09 01:17:32;;;;;;;34.03;15.27;;;15.80;99.90;;;;;;5115119;28;20031;-32
2023/05/09 01:20:19;;;;;;;40.70;16.80;;;15.80;99.90;;;;;;5100292;28;20554;-37
2023/05/09 01:22:51;;;;;;;38.28;15.63;;;15.80;99.90;;;;;;5096031;28;20024;-39
2023/05/09 01:25:47;;;;;;;38.92;16.40;;;15.80;99.90;;;;;;5107059;28;20475;-36
2023/05/09 01:28:25;;;;;;;37.05;15.88;;;15.80;99.90;;;;;;5114545;28;20080;-33
2023/05/09 01:30:52;;;;;;;44.22;17.48;;;15.80;99.90;;;;;;5105001;28;20055;-34
2023/05/09 01:33:19;;;;;;;38.80;16.00;;;15.80;99.90;;;;;;5096396;28;20101;-41
2023/05/09 01:35:51;;;;;;;36.67;14.77;;;15.80;99.90;;;;;;5110950;28;20502;-35
2023/05/09 01:38:21;;;;;;;37.05;16.63;;;15.80;99.90;;;;;;5116350;28;20072;-31
2023/05/09 01:40:53;;;;;;;36.70;15.38;;;15.80;99.90;;;;;;5115488;28;20027;-32
2023/05/09 01:43:20;;;;;;;36.28;15.68;;;15.80;99.90;;;;;;5116474;28;20537;-36
2023/05/09 01:45:47;;;;;;;29.92;14.63;;;15.70;99.90;;;;;;5099929;28;20049;-32
2023/05/09 01:48:14;;;;;;;36.88;16.02;;;15.70;99.90;;;;;;5095826;28;20016;-34
2023/05/09 01:50:42;;;;;;;37.55;14.23;;;15.70;99.90;;;;;;5095155;28;20036;-36
2023/05/09 01:53:09;;;;;;;;;;;15.60;99.90;;;;;;5095239;28;20028;-34
2023/05/09 01:55:36;;;;;;;34.83;14.45;;;15.70;99.90;;;;;;5108961;28;19921;-35
2023/05/09 01:58:04;;;;;;;27.23;12.90;;;15.70;99.90;;;;;;5100063;28;20039;-35
2023/05/09 02:00:32;;;;;;;27.67;12.88;;;15.60;99.90;;;;;;5104681;28;20318;-34
2023/05/09 02:02:59;;;;;;;31.65;12.90;;;15.60;99.90;;;;;;5114939;28;20089;-30
2023/05/09 02:05:29;;;;;;;26.52;12.90;;;15.60;99.90;;;;;;5112976;28;20384;-36
2023/05/09 02:07:58;;;;;;;29.95;12.98;;;15.60;99.90;;;;;;5103344;28;20031;-34
2023/05/09 02:10:26;;;;;;;32.15;13.50;;;15.60;99.90;;;;;;5097718;28;20028;-34
2023/05/09 02:12:52;;;;;;;;;;;15.60;99.90;;;;;;5095797;28;20427;-32
2023/05/09 02:15:18;;;;;;;32.53;11.20;;;15.60;99.90;;;;;;5104830;28;19962;-34
2023/05/09 02:17:44;;;;;;;30.40;12.93;;;15.60;99.90;;;;;;5114035;28;20472;-32
2023/05/09 02:20:10;;;;;;;23.60;11.38;;;15.50;99.90;;;;;;5097212;28;20064;-36
2023/05/09 02:22:38;;;;;;;24.38;11.75;;;15.50;99.90;;;;;;5095138;28;20020;-33
2023/05/09 02:25:06;;;;;;;29.80;12.57;;;15.50;99.90;;;;;;5097880;28;20028;-34
2023/05/09 02:27:33;;;;;;;27.65;12.07;;;15.50;99.90;;;;;;5095095;28;20024;-31
2023/05/09 02:30:03;;;;;;;28.65;11.93;;;15.50;99.90;;;;;;5104065;28;20020;-37
2023/05/09 02:32:31;;;;;;;25.02;13.18;;;15.60;99.90;;;;;;5115373;28;20114;-34
2023/05/09 02:34:59;;;;;;;31.38;12.52;;;15.50;99.90;;;;;;5109083;28;20473;-35
2023/05/09 02:37:25;;;;;;;25.05;11.00;;;15.50;99.90;;;;;;5095426;28;20024;-33
2023/05/09 02:39:51;;;;;;;27.33;11.02;;;15.50;99.90;;;;;;5098102;28;20062;-38
2023/05/09 02:42:24;;;;;;;22.48;10.43;;;15.50;99.90;;;;;;5104515;28;20055;-31
2023/05/09 02:44:53;;;;;;;24.83;12.07;;;15.50;99.90;;;;;;5107898;28;20019;-33
2023/05/09 02:47:19;;;;;;;23.00;11.23;;;15.50;99.90;;;;;;5115049;28;20053;-38
2023/05/09 02:49:44;;;;;;;25.70;10.57;;;15.50;99.90;;;;;;5115029;28;20024;-38
2023/05/09 02:52:10;;;;;;;18.60;9.77;;;15.50;99.90;;;;;;5108700;28;20030;-36
2023/05/09 02:54:36;;;;;;;21.92;11.93;;;15.50;99.90;;;;;;5107022;28;20025;-33
2023/05/09 02:57:02;;;;;;;22.85;10.65;;;15.50;99.90;;;;;;5094456;28;20073;-33
2023/05/09 02:59:28;;;;;;;22.73;11.57;;;15.50;99.90;;;;;;5099385;28;20027;-37
2023/05/09 03:01:54;;;;;;;23.15;11.50;;;15.40;99.90;;;;;;5114075;28;20073;-37
2023/05/09 03:04:20;;;;;;;24.63;10.85;;;15.50;99.90;;;;;;5107597;28;20020;-38
2023/05/09 03:06:45;;;;;;;25.77;11.13;;;15.40;99.90;;;;;;5100859;28;20437;-33
2023/05/09 03:09:11;;;;;;;29.38;11.60;;;15.40;99.90;;;;;;5104447;28;20035;-32
2023/05/09 03:11:36;;;;;;;24.58;11.00;;;15.40;99.90;;;;;;5113972;28;20392;-32
2023/05/09 03:14:03;;;;;;;28.92;11.63;;;15.40;99.90;;;;;;5112882;28;20550;-41
2023/05/09 03:16:29;;;;;;;21.98;11.98;;;15.40;99.90;;;;;;5114013;28;20027;-33
2023/05/09 03:18:55;;;;;;;26.15;10.68;;;15.30;99.90;;;;;;5112938;28;20111;-39
2023/05/09 03:21:21;;;;;;;23.70;11.52;;;15.30;99.90;;;;;;5114194;28;20063;-33
2023/05/09 03:23:47;;;;;;;30.58;13.38;;;15.30;99.90;;;;;;5111957;28;20031;-32
2023/05/09 03:26:12;;;;;;;23.48;11.77;;;15.30;99.90;;;;;;5109186;28;20027;-35
2023/05/09 03:28:38;;;;;;;20.58;11.27;;;15.20;99.90;;;;;;5094234;28;20024;-33
2023/05/09 03:31:04;;;;;;;23.95;11.73;;;15.10;99.90;;;;;;5108402;28;20024;-30
2023/05/09 03:33:30;;;;;;;21.27;10.40;;;15.20;99.90;;;;;;5114118;28;20157;-37
2023/05/09 03:35:56;;;;;;;28.80;11.75;;;15.20;99.90;;;;;;5095752;28;20494;-32
2023/05/09 03:38:23;;;;;;;22.27;11.10;;;15.10;99.90;;;;;;5093262;28;20032;-34
2023/05/09 03:40:50;;;;;;;27.45;11.38;;;15.10;99.90;;;;;;5112436;28;20051;-32
2023/05/09 03:43:15;;;;;;;25.98;11.18;;;15.10;99.90;;;;;;5113194;28;20030;-32
2023/05/09 03:45:41;;;;;;;28.48;11.25;;;15.00;99.90;;;;;;5112615;28;20122;-35
2023/05/09 03:48:10;;;;;;;24.42;11.80;;;15.00;99.90;;;;;;5113947;28;20020;-37
2023/05/09 03:50:36;;;;;;;23.13;9.40;;;15.00;99.90;;;;;;5099324;28;20457;-32
2023/05/09 03:53:02;;;;;;;22.60;10.63;;;15.00;99.90;;;;;;5112997;28;20085;-33
2023/05/09 03:55:27;;;;;;;20.05;10.20;;;15.00;99.90;;;;;;5096642;28;20028;-34
2023/05/09 03:57:54;;;;;;;27.08;11.55;;;15.00;99.90;;;;;;5093302;28;20093;-39
2023/05/09 04:00:20;;;;;;;25.15;10.70;;;15.00;99.90;;;;;;5101880;28;20545;-35
2023/05/09 04:02:47;;;;;;;22.52;10.48;;;15.00;99.90;;;;;;5106866;28;20040;-33
2023/05/09 04:05:13;;;;;;;25.48;10.73;;;14.90;99.90;;;;;;5093324;28;20430;-31
2023/05/09 04:07:38;;;;;;;25.70;10.40;;;14.90;99.90;;;;;;5094626;28;20063;-36
2023/05/09 04:10:05;;;;;;;18.45;9.68;;;14.90;99.90;;;;;;5101858;28;20495;-33
2023/05/09 04:12:30;;;;;;;19.98;9.68;;;14.90;99.90;;;;;;5112954;28;20552;-36
2023/05/09 04:14:56;;;;;;;19.35;10.38;;;14.90;99.90;;;;;;5105693;28;20028;-40
2023/05/09 04:17:21;;;;;;;22.02;11.70;;;14.90;99.90;;;;;;5093619;28;20428;-31
2023/05/09 04:19:47;;;;;;;19.48;10.02;;;15.00;99.90;;;;;;5093031;28;20501;-33
2023/05/09 04:22:13;;;;;;;22.10;9.98;;;15.00;99.90;;;;;;5113199;28;20016;-35
2023/05/09 04:24:38;;;;;;;22.98;11.40;;;14.90;99.90;;;;;;5110379;28;20084;-33
2023/05/09 04:27:04;;;;;;;26.92;10.85;;;15.00;99.90;;;;;;5111616;28;20031;-39
2023/05/09 04:29:30;;;;;;;22.92;11.32;;;14.90;99.90;;;;;;5111696;28;20031;-33
2023/05/09 04:31:56;;;;;;;24.85;11.57;;;14.90;99.90;;;;;;5093219;28;20512;-35
2023/05/09 04:34:22;;;;;;;19.65;10.63;;;14.90;99.90;;;;;;5092939;28;20032;-35
2023/05/09 04:36:48;;;;;;;25.25;11.00;;;15.00;99.90;;;;;;5105448;28;20103;-32
2023/05/09 04:39:13;;;;;;;23.50;11.02;;;15.00;99.90;;;;;;5112444;28;20024;-37
2023/05/09 04:41:39;;;;;;;20.42;10.68;;;15.00;99.90;;;;;;5111211;28;20609;-38
2023/05/09 04:44:05;;;;;;;30.10;10.90;;;15.00;99.90;;;;;;5113092;28;20031;-33
2023/05/09 04:46:30;;;;;;;21.77;10.80;;;15.10;99.90;;;;;;5096574;28;20024;-35
2023/05/09 04:48:56;;;;;;;19.42;10.27;;;15.00;99.90;;;;;;5092794;28;20056;-39
2023/05/09 04:51:22;;;;;;;27.15;11.75;;;15.00;99.90;;;;;;5096405;28;20028;-31
2023/05/09 04:53:47;;;;;;;23.15;10.80;;;15.00;99.90;;;;;;5092714;28;20039;-41
2023/05/09 04:56:13;;;;;;;32.13;12.02;;;15.00;99.90;;;;;;5090489;28;20434;-40
2023/05/09 04:58:39;;;;;;;23.55;11.30;;;15.00;99.90;;;;;;5092751;28;20024;-39
2023/05/09 05:01:05;;;;;;;20.30;11.05;;;15.10;99.90;;;;;;5105283;28;20055;-38
2023/05/09 05:03:32;;;;;;;22.13;11.48;;;15.10;99.90;;;;;;5106271;28;20024;-39
2023/05/09 05:05:57;;;;;;;23.70;10.20;;;15.10;99.90;;;;;;5103137;28;20039;-40
2023/05/09 05:08:26;;;;;;;20.92;10.48;;;15.20;99.90;;;;;;5107641;28;20388;-42
2023/05/09 05:10:51;;;;;;;30.08;11.35;;;15.20;99.90;;;;;;5094627;28;20032;-40
2023/05/09 05:13:17;;;;;;;20.23;10.68;;;15.20;99.90;;;;;;5106486;28;20185;-38
2023/05/09 05:15:43;;;;;;;20.20;9.90;;;15.20;99.90;;;;;;5100285;28;20433;-39
2023/05/09 05:18:08;;;;;;;21.60;11.30;;;15.20;99.90;;;;;;5112936;28;20034;-40
2023/05/09 05:20:34;;;;;;;21.45;10.48;;;15.20;99.90;;;;;;5102332;28;20024;-41
2023/05/09 05:23:00;;;;;;;24.10;10.30;;;15.30;99.90;;;;;;5098011;28;20483;-35
2023/05/09 05:25:26;;;;;;;19.27;10.02;;;15.30;99.90;;;;;;5108539;28;20012;-39
2023/05/09 05:27:51;;;;;;;19.92;8.95;;;15.30;99.90;;;;;;5113779;28;20085;-40
2023/05/09 05:30:17;;;;;;;19.98;9.95;;;15.40;99.90;;;;;;5111319;28;20076;-40
2023/05/09 05:32:43;;;;;;;21.95;9.77;;;15.40;99.90;;;;;;5112369;28;20110;-40
2023/05/09 05:35:12;;;;;;;20.00;9.02;;;15.40;99.90;;;;;;5116543;28;20028;-39
2023/05/09 05:37:39;;;;;;;19.52;10.43;;;15.50;99.90;;;;;;5114303;28;20102;-39
2023/05/09 05:40:05;;;;;;;20.17;9.35;;;15.50;99.90;;;;;;5098297;28;20040;-39
2023/05/09 05:42:31;;;;;;;17.92;9.93;;;15.50;99.90;;;;;;5113990;28;20028;-39
2023/05/09 05:45:03;;;;;;;25.65;9.02;;;15.50;99.90;;;;;;5098871;28;20023;-41
2023/05/09 05:47:32;;;;;;;18.88;9.70;;;15.60;99.90;;;;;;5112823;28;20028;-41
2023/05/09 05:49:58;;;;;;;17.38;9.77;;;15.60;99.90;;;;;;5116166;28;20039;-41
2023/05/09 05:52:25;;;;;;;23.95;8.52;;;15.60;99.90;;;;;;5101631;28;20036;-40
2023/05/09 05:54:51;;;;;;;22.40;10.02;;;15.60;99.90;;;;;;5095686;28;20058;-40
2023/05/09 05:57:16;;;;;;;20.33;9.95;;;15.50;99.90;;;;;;5110799;28;20470;-39
2023/05/09 05:59:42;;;;;;;18.00;9.00;;;15.50;99.90;;;;;;5115307;28;20031;-41
2023/05/09 06:02:07;;;;;;;15.95;9.30;;;15.50;99.90;;;;;;5109310;27;20074;-34
2023/05/09 06:04:33;;;;;;;20.15;9.88;;;15.40;99.90;;;;;;5106794;28;20475;-40
2023/05/09 06:06:59;;;;;;;20.70;9.65;;;15.40;99.90;;;;;;5104186;28;20027;-41
2023/05/09 06:09:24;;;;;;;14.55;8.85;;;15.50;99.90;;;;;;5102098;28;20380;-39
2023/05/09 06:11:50;;;;;;;15.95;8.30;;;15.40;99.90;;;;;;5100068;28;20085;-39
2023/05/09 06:14:16;;;;;;;17.20;9.82;;;15.40;99.90;;;;;;5105565;28;20107;-40
2023/05/09 06:16:41;;;;;;;15.20;8.93;;;15.40;99.90;;;;;;5112947;28;20414;-40
2023/05/09 06:19:07;;;;;;;14.82;9.02;;;15.40;99.90;;;;;;5107487;27;20036;-40
2023/05/09 06:21:33;;;;;;;16.60;9.38;;;15.40;99.90;;;;;;5111017;28;20020;-41
2023/05/09 06:23:59;;;;;;;13.68;8.90;;;15.30;99.90;;;;;;5115572;28;20016;-40
2023/05/09 06:26:25;;;;;;;18.58;9.52;;;15.30;99.90;;;;;;5113892;28;20023;-40
2023/05/09 06:28:50;;;;;;;15.68;9.73;;;15.30;99.90;;;;;;5107874;28;20063;-40
2023/05/09 06:31:16;;;;;;;22.92;10.52;;;15.30;99.90;;;;;;5104066;28;20059;-40
2023/05/09 06:33:42;;;;;;;17.67;9.35;;;15.20;99.90;;;;;;5094695;28;20578;-42
2023/05/09 06:36:08;;;;;;;18.15;9.10;;;15.20;99.90;;;;;;5105796;28;20143;-40
2023/05/09 06:38:34;;;;;;;21.33;10.43;;;15.20;99.90;;;;;;5099050;28;20024;-42
2023/05/09 06:41:00;;;;;;;20.10;9.32;;;15.20;99.90;;;;;;5094087;28;20480;-36
2023/05/09 06:43:26;;;;;;;22.50;9.07;;;15.20;99.90;;;;;;5103921;28;20490;-47
2023/05/09 06:45:51;;;;;;;20.67;10.10;;;15.10;99.90;;;;;;5102858;28;20059;-42
2023/05/09 06:48:17;;;;;;;13.68;8.00;;;15.10;99.90;;;;;;5094835;28;20122;-41
2023/05/09 06:50:42;;;;;;;13.73;8.05;;;15.00;99.90;;;;;;5100472;28;20452;-40
2023/05/09 06:53:08;;;;;;;19.75;9.80;;;15.00;99.90;;;;;;5106277;28;20388;-42
2023/05/09 06:55:34;;;;;;;28.85;9.70;;;15.00;99.90;;;;;;5097526;28;20481;-40
2023/05/09 06:58:00;;;;;;;16.33;8.77;;;15.00;99.90;;;;;;5094471;28;20032;-45
2023/05/09 07:00:26;;;;;;;17.55;8.63;;;15.10;99.90;;;;;;5096208;28;20393;-42
2023/05/09 07:02:51;;;;;;;15.73;8.82;;;15.10;99.90;;;;;;5108343;28;20427;-43
2023/05/09 07:05:17;;;;;;;24.17;10.02;;;15.10;99.90;;;;;;5114686;28;20488;-42
2023/05/09 07:07:43;;;;;;;14.75;8.43;;;15.10;99.90;;;;;;5106198;28;20063;-36
2023/05/09 07:10:09;;;;;;;16.88;9.07;;;15.20;99.90;;;;;;5106786;28;20020;-38
2023/05/09 07:12:34;;;;;;;23.35;9.48;;;15.20;99.90;;;;;;5098841;28;20026;-34
2023/05/09 07:15:00;;;;;;;20.38;9.48;;;15.10;99.90;;;;;;5100702;28;20426;-34
2023/05/09 07:17:26;;;;;;;19.30;9.75;;;15.20;99.90;;;;;;5096225;28;20028;-40
2023/05/09 07:19:52;;;;;;;17.98;9.45;;;15.20;99.90;;;;;;5096231;28;20437;-36
2023/05/09 07:22:18;;;;;;;15.27;8.80;;;15.20;99.90;;;;;;5100429;28;20028;-41
2023/05/09 07:24:45;;;;;;;20.40;9.10;;;15.20;99.90;;;;;;5095000;27;20488;-37
2023/05/09 07:27:10;;;;;;;17.38;9.18;;;15.20;99.90;;;;;;5112753;27;20034;-40
2023/05/09 07:29:36;;;;;;;18.65;8.07;;;15.20;99.90;;;;;;5112523;28;20114;-40
2023/05/09 07:32:02;;;;;;;15.45;9.15;;;15.20;99.90;;;;;;5112579;28;20401;-39
2023/05/09 07:34:27;;;;;;;19.30;9.13;;;15.20;99.90;;;;;;5114225;28;20035;-36
2023/05/09 07:36:53;;;;;;;18.30;8.30;;;15.20;99.90;;;;;;5114049;28;20392;-35
2023/05/09 07:39:18;;;;;;;13.70;7.72;;;15.20;99.90;;;;;;5107029;28;20016;-39
2023/05/09 07:41:44;;;;;;;15.73;8.40;;;15.20;99.90;;;;;;5110048;28;20053;-41
2023/05/09 07:44:10;;;;;;;15.57;8.02;;;15.20;99.90;;;;;;5114078;28;20522;-37
2023/05/09 07:46:37;;;;;;;15.63;7.30;;;15.20;99.90;;;;;;5112151;28;20035;-39
2023/05/09 07:49:03;;;;;;;16.08;7.93;;;15.20;99.90;;;;;;5113905;28;20495;-35
2023/05/09 07:51:28;;;;;;;12.80;7.15;;;15.20;99.90;;;;;;5112544;28;20023;-38
2023/05/09 07:53:55;;;;;;;14.18;7.75;;;15.10;99.90;;;;;;5104078;28;20034;-39
2023/05/09 07:56:21;;;;;;;17.67;9.27;;;15.10;99.90;;;;;;5112219;28;20102;-39
2023/05/09 07:58:47;;;;;;;15.60;8.13;;;15.10;99.90;;;;;;5106333;28;20035;-42
2023/05/09 08:01:13;;;;;;;15.20;8.27;;;15.10;99.90;;;;;;5105564;28;20034;-41
2023/05/09 08:03:39;;;;;;;14.55;9.05;;;15.10;99.90;;;;;;5113641;28;20020;-42
2023/05/09 08:06:04;;;;;;;16.75;9.55;;;15.10;99.90;;;;;;5113052;28;20051;-40
2023/05/09 08:08:30;;;;;;;19.70;8.93;;;15.10;99.90;;;;;;5097041;28;20110;-39
2023/05/09 08:10:56;;;;;;;13.75;8.40;;;15.10;99.90;;;;;;5092913;28;20081;-39
2023/05/09 08:13:21;;;;;;;12.75;7.72;;;15.10;99.90;;;;;;5093131;28;20031;-39
2023/05/09 08:15:47;;;;;;;14.90;7.82;;;15.20;99.90;;;;;;5105481;28;20067;-42
2023/05/09 08:18:13;;;;;;;13.20;7.72;;;15.20;99.90;;;;;;5104852;28;20553;-37
2023/05/09 08:20:39;;;;;;;14.57;7.50;;;15.20;99.90;;;;;;5095283;27;20024;-40
2023/05/09 08:23:05;;;;;;;13.00;7.05;;;15.20;99.90;;;;;;5096371;28;20388;-39
2023/05/09 08:25:53;;;;;;;12.18;7.75;;;15.20;99.90;;;;;;5104434;28;20526;-40
2023/05/09 08:28:19;;;;;;;12.15;7.35;;;15.10;99.90;;;;;;5099205;28;20376;-41
2023/05/09 08:30:44;;;;;;;15.07;8.38;;;15.10;99.90;;;;;;5094917;28;20028;-40
2023/05/09 08:33:10;;;;;;;13.55;6.82;;;15.00;99.90;;;;;;5092239;28;20032;-43
2023/05/09 08:35:36;;;;;;;12.88;6.97;;;15.10;99.90;;;;;;5094254;28;20476;-39
2023/05/09 08:38:01;;;;;;;14.23;6.57;;;15.10;99.90;;;;;;5092799;28;20042;-40
2023/05/09 08:40:27;;;;;;;11.48;7.25;;;15.20;99.90;;;;;;5109262;28;20032;-39
2023/05/09 08:42:53;;;;;;;9.18;6.40;;;15.20;99.90;;;;;;5098515;28;20103;-37
2023/05/09 08:45:26;;;;;;;11.73;6.70;;;15.30;99.90;;;;;;5095471;28;20522;-42
2023/05/09 08:47:53;;;;;;;13.00;6.47;;;15.30;99.90;;;;;;5108915;28;20024;-38
2023/05/09 08:50:19;;;;;;;10.97;6.33;;;15.30;99.90;;;;;;5098589;28;20107;-40
2023/05/09 08:52:45;;;;;;;12.48;6.50;;;15.20;99.90;;;;;;5092589;28;20032;-43
2023/05/09 08:55:11;;;;;;;12.55;5.93;;;15.20;99.90;;;;;;5098662;28;20068;-38
2023/05/09 08:57:37;;;;;;;9.60;6.68;;;15.20;99.90;;;;;;5106709;28;20058;-40
2023/05/09 09:00:09;;;;;;;8.07;5.80;;;15.20;99.90;;;;;;5104684;28;20125;-37
2023/05/09 09:02:39;;;;;;;11.07;6.28;;;15.20;99.90;;;;;;5117033;28;20522;-39
2023/05/09 09:05:06;;;;;;;8.70;6.00;;;15.20;99.90;;;;;;5109520;28;20652;-40
2023/05/09 09:07:35;;;;;;;4.93;4.07;;;15.20;99.90;;;;;;5106862;28;20012;-38
2023/05/09 09:10:02;;;;;;;9.18;5.82;;;15.20;99.90;;;;;;5106487;28;20036;-41
2023/05/09 09:12:28;;;;;;;9.68;6.60;;;15.20;99.90;;;;;;5108595;28;20539;-37
2023/05/09 09:14:58;;;;;;;16.65;6.72;;;15.20;99.90;;;;;;5111784;28;20043;-40
2023/05/09 09:17:28;;;;;;;12.05;5.95;;;15.20;99.90;;;;;;5109450;28;20293;-38
2023/05/09 09:20:04;;;;;;;13.18;6.93;;;15.30;99.90;;;;;;5105561;28;20028;-42
2023/05/09 09:22:33;;;;;;;12.63;7.00;;;15.30;99.90;;;;;;5100691;28;20016;-47
2023/05/09 09:25:02;;;;;;;10.02;7.32;;;15.30;99.90;;;;;;5109575;28;20103;-47
2023/05/09 09:27:28;;;;;;;10.07;6.88;;;15.30;99.90;;;;;;5097992;28;20567;-49
2023/05/09 09:29:53;;;;;;;11.23;6.93;;;15.30;99.90;;;;;;5102630;28;20115;-43
2023/05/09 09:32:20;;;;;;;10.23;7.10;;;15.30;99.90;;;;;;5111698;28;20102;-43
2023/05/09 09:34:49;;;;;;;12.68;7.28;;;15.20;99.90;;;;;;5109675;28;20027;-40
2023/05/09 09:37:23;;;;;;;12.10;7.05;;;15.20;99.90;;;;;;5103741;28;20019;-44
2023/05/09 09:39:54;;;;;;;10.27;7.03;;;15.20;99.90;;;;;;5108778;28;20115;-47
2023/05/09 09:42:20;;;;;;;12.85;6.50;;;15.20;99.90;;;;;;5107854;28;20041;-44
2023/05/09 09:44:55;;;;;;;10.70;6.70;;;15.30;99.90;;;;;;5110411;28;20023;-43
2023/05/09 09:47:30;;;;;;;9.60;6.88;;;15.30;99.90;;;;;;5101920;28;20445;-48
2023/05/09 09:49:56;;;;;;;8.82;6.13;;;15.30;99.90;;;;;;5104908;28;20475;-45
2023/05/09 09:52:25;;;;;;;7.95;6.32;;;15.20;99.90;;;;;;5106859;28;20114;-48
2023/05/09 09:54:55;;;;;;;11.77;6.53;;;15.30;99.90;;;;;;5095624;28;20110;-41
2023/05/09 09:57:38;;;;;;;12.00;6.53;;;15.30;99.90;;;;;;5100428;28;20463;-47
2023/05/09 10:00:05;;;;;;;8.75;6.05;;;15.30;99.90;;;;;;5115982;28;20526;-43
2023/05/09 10:02:31;;;;;;;10.07;6.18;;;15.30;99.90;;;;;;5114644;28;20047;-43
2023/05/09 10:05:05;;;;;;;14.63;6.40;;;15.30;99.90;;;;;;5100226;28;20046;-49
2023/05/09 10:07:34;;;;;;;8.88;6.15;;;15.40;99.90;;;;;;5102239;28;20023;-48
2023/05/09 10:10:04;;;;;;;15.20;7.05;;;15.40;99.90;;;;;;5114017;28;20028;-50
2023/05/09 10:12:33;;;;;;;9.75;5.47;;;15.30;99.90;;;;;;5108040;28;20487;-44
2023/05/09 10:15:00;;;;;;;7.95;5.50;;;15.30;99.90;;;;;;5099308;27;20671;-44
2023/05/09 10:17:27;;;;;;;11.93;6.00;;;15.20;99.90;;;;;;5100012;28;20036;-46
2023/05/09 10:19:54;;;;;;;9.60;5.95;;;15.20;99.90;;;;;;5098342;28;20519;-42
2023/05/09 10:22:20;;;;;;;8.32;6.10;;;15.20;99.90;;;;;;5098437;28;20499;-47
2023/05/09 10:25:05;;;;;;;7.22;5.80;;;15.20;99.90;;;;;;5104759;28;20020;-44
2023/05/09 10:27:34;;;;;;;9.52;5.80;;;15.20;99.90;;;;;;5098558;28;20515;-47
2023/05/09 10:30:07;;;;;;;8.55;6.00;;;15.10;99.90;;;;;;5111796;28;20027;-45
2023/05/09 10:32:51;;;;;;;11.48;6.18;;;15.10;99.90;;;;;;5110679;28;20062;-43
2023/05/09 10:35:19;;;;;;;7.28;5.32;;;15.10;99.90;;;;;;5101506;28;20072;-43
2023/05/09 10:37:44;;;;;;;;;;;15.10;99.90;;;;;;5111244;28;20035;-46
2023/05/09 10:40:13;;;;;;;8.95;5.40;;;15.10;99.90;;;;;;5095594;28;20049;-44
2023/05/09 10:42:43;;;;;;;8.20;5.15;;;15.00;99.90;;;;;;5095180;28;20495;-42
2023/05/09 10:45:11;;;;;;;8.60;5.50;;;15.00;99.90;;;;;;5098616;28;20070;-43
2023/05/09 10:47:38;;;;;;;10.77;5.25;;;15.00;99.90;;;;;;5101619;28;20020;-44
2023/05/09 10:50:07;;;;;;;7.60;5.55;;;15.00;99.90;;;;;;5096863;28;20590;-42
2023/05/09 10:52:33;;;;;;;9.88;5.68;;;15.00;99.90;;;;;;5096796;28;20047;-42
2023/05/09 10:55:04;;;;;;;8.77;5.03;;;15.00;99.90;;;;;;5094558;28;20032;-40
2023/05/09 10:57:31;;;;;;;7.43;5.15;;;15.00;99.90;;;;;;5101970;28;20046;-40
2023/05/09 10:59:57;;;;;;;11.90;6.13;;;15.00;99.90;;;;;;5102683;28;20035;-45
2023/05/09 11:02:31;;;;;;;10.93;5.93;;;15.00;99.90;;;;;;5097336;28;20301;-43
2023/05/09 11:05:37;;;;;;;10.82;5.88;;;15.00;99.90;;;;;;5104534;28;20442;-46
2023/05/09 11:08:32;;;;;;;10.65;5.55;;;15.00;99.90;;;;;;5055813;28;20029;-41
2023/05/09 11:11:04;;;;;;;9.60;6.00;;;15.00;99.90;;;;;;5114692;28;20031;-45
2023/05/09 11:13:32;;;;;;;7.00;5.40;;;14.90;99.90;;;;;;5114607;28;20539;-44
2023/05/09 11:16:00;;;;;;;;;;;15.00;99.90;;;;;;5113739;28;20038;-42
2023/05/09 11:18:27;;;;;;;10.02;5.47;;;15.00;99.90;;;;;;5106371;28;19980;-44
2023/05/09 11:20:54;;;;;;;10.48;6.00;;;15.00;99.90;;;;;;5111759;28;20023;-43
2023/05/09 11:23:22;;;;;;;10.88;6.03;;;15.00;99.90;;;;;;5102141;28;20419;-42
2023/05/09 11:25:48;;;;;;;15.10;5.85;;;15.10;99.90;;;;;;5098947;28;20038;-43
2023/05/09 11:28:35;;;;;;;7.38;5.57;;;15.10;99.90;;;;;;5096560;28;20464;-46
2023/05/09 11:31:15;;;;;;;11.23;5.90;;;15.20;99.90;;;;;;5107585;28;20361;-41
2023/05/09 11:33:42;;;;;;;7.22;5.03;;;15.10;99.90;;;;;;5103124;28;20483;-41
2023/05/09 11:36:28;;;;;;;8.75;5.95;;;15.10;99.90;;;;;;5112307;28;20059;-43
2023/05/09 11:39:03;;;;;;;11.35;6.10;;;15.10;99.90;;;;;;5107888;28;20376;-41
2023/05/09 11:41:29;;;;;;;9.07;5.78;;;15.10;99.90;;;;;;5093453;28;20107;-39
2023/05/09 11:43:58;;;;;;;10.85;6.30;;;15.10;99.90;;;;;;5105780;28;20546;-41
2023/05/09 11:46:24;;;;;;;10.70;6.28;;;15.10;99.90;;;;;;5114223;28;20095;-42
2023/05/09 11:48:49;;;;;;;7.65;5.43;;;15.10;99.90;;;;;;5098789;28;20129;-38
2023/05/09 11:51:17;;;;;;;9.75;5.85;;;15.10;99.90;;;;;;5097618;28;20044;-40
2023/05/09 11:53:49;;;;;;;10.40;5.10;;;15.20;99.90;;;;;;5113811;28;20030;-44
2023/05/09 11:56:15;;;;;;;8.43;5.53;;;15.20;99.90;;;;;;5104761;28;20604;-43
2023/05/09 11:58:42;;;;;;;7.93;5.85;;;15.20;99.90;;;;;;5093079;28;20059;-42
2023/05/09 12:01:12;;;;;;;7.93;6.10;;;15.20;99.90;;;;;;5091352;28;20044;-40
2023/05/09 12:03:45;;;;;;;8.80;6.20;;;15.20;99.90;;;;;;5093109;28;20067;-44
2023/05/09 12:06:18;;;;;;;8.68;5.68;;;15.20;99.90;;;;;;5093400;28;20115;-45
2023/05/09 12:08:45;;;;;;;10.75;4.90;;;15.30;99.90;;;;;;5093394;28;20032;-42
2023/05/09 12:11:11;;;;;;;9.20;5.28;;;15.20;99.90;;;;;;5093459;28;20472;-46
2023/05/09 12:13:51;;;;;;;7.43;4.88;;;15.20;99.90;;;;;;5093652;28;20099;-45
2023/05/09 12:16:18;;;;;;;7.07;5.10;;;15.20;99.90;;;;;;5093415;28;20535;-45
2023/05/09 12:18:51;;;;;;;9.88;5.72;;;15.20;99.90;;;;;;5097173;28;20067;-46
2023/05/09 12:21:18;;;;;;;7.28;5.70;;;15.20;99.90;;;;;;5094027;28;20456;-46
2023/05/09 12:23:45;;;;;;;7.27;5.40;;;15.30;99.90;;;;;;5095023;28;20032;-43
2023/05/09 12:26:11;;;;;;;13.77;5.43;;;15.30;99.90;;;;;;5111004;28;20517;-42
2023/05/09 12:28:38;;;;;;;8.05;5.93;;;15.30;99.90;;;;;;5105010;28;20396;-45
2023/05/09 12:31:05;;;;;;;8.05;5.07;;;15.20;99.90;;;;;;5099461;28;20028;-40
2023/05/09 12:33:31;;;;;;;7.93;5.65;;;15.20;99.90;;;;;;5095875;28;20480;-43
2023/05/09 12:36:09;;;;;;;6.28;5.03;;;15.20;99.90;;;;;;5095509;28;20034;-46
2023/05/09 12:38:36;;;;;;;8.10;4.65;;;15.30;99.90;;;;;;5101644;28;20039;-38